createdAt,value
2019-03-23T00:01:47.850Z,14.53
2019-03-23T00:04:18.126Z,12.43
2019-03-23T00:06:48.434Z,17.00
2019-03-23T00:09:18.766Z,13.97
2019-03-23T00:11:49.139Z,13.90
2019-03-23T00:14:19.532Z,14.80
2019-03-23T00:16:49.950Z,16.77
2019-03-23T00:19:20.242Z,16.50
2019-03-23T00:21:52.458Z,15.23
2019-03-23T00:24:22.838Z,19.37
2019-03-23T00:26:53.456Z,20.77
2019-03-23T00:29:23.826Z,21.40
2019-03-23T00:31:54.098Z,14.00
2019-03-23T00:34:24.345Z,15.77
2019-03-23T00:36:54.658Z,16.03
2019-03-23T00:39:25.252Z,21.33
2019-03-23T00:41:55.591Z,20.67
2019-03-23T00:44:26.004Z,23.50
2019-03-23T00:46:56.353Z,23.50
2019-03-23T00:49:26.757Z,19.03
2019-03-23T00:51:57.071Z,23.53
2019-03-23T00:54:27.489Z,27.20
2019-03-23T00:56:57.961Z,22.87
2019-03-23T00:59:28.254Z,26.60
2019-03-23T01:01:58.969Z,27.30
2019-03-23T01:04:29.345Z,21.50
2019-03-23T01:06:59.883Z,27.60
2019-03-23T01:09:30.175Z,25.60
2019-03-23T01:12:00.529Z,27.93
2019-03-23T01:14:31.016Z,25.20
2019-03-23T01:17:01.488Z,26.83
2019-03-23T01:19:31.830Z,31.20
2019-03-23T01:22:02.199Z,31.90
2019-03-23T01:24:32.476Z,31.63
2019-03-23T01:27:02.875Z,35.43
2019-03-23T01:29:33.197Z,33.13
2019-03-23T01:32:03.488Z,32.90
2019-03-23T01:34:33.850Z,35.47
2019-03-23T01:37:04.068Z,35.37
2019-03-23T01:39:34.328Z,36.00
2019-03-23T01:42:04.619Z,37.57
2019-03-23T01:44:34.910Z,39.10
2019-03-23T01:47:05.258Z,39.63
2019-03-23T01:49:35.491Z,38.03
2019-03-23T01:52:05.710Z,39.77
2019-03-23T01:54:36.064Z,41.37
2019-03-23T01:57:06.295Z,42.03
2019-03-23T01:59:36.506Z,40.73
2019-03-23T02:02:06.747Z,44.97
2019-03-23T02:04:36.970Z,43.93
2019-03-23T02:07:13.838Z,43.53
2019-03-23T02:09:39.176Z,42.13
2019-03-23T02:12:09.394Z,40.90
2019-03-23T02:14:39.626Z,40.17
2019-03-23T02:17:09.865Z,40.37
2019-03-23T02:19:41.205Z,37.07
2019-03-23T02:22:11.335Z,38.90
2019-03-23T02:24:41.624Z,39.20
2019-03-23T02:27:11.868Z,40.17
2019-03-23T02:29:42.152Z,38.10
2019-03-23T02:32:12.408Z,39.20
2019-03-23T02:34:42.653Z,39.60
2019-03-23T02:37:12.912Z,39.07
2019-03-23T02:39:43.110Z,39.60
2019-03-23T02:42:13.316Z,38.77
2019-03-23T02:44:43.566Z,40.53
2019-03-23T02:47:13.825Z,36.80
2019-03-23T02:49:44.037Z,40.53
2019-03-23T02:52:14.211Z,38.07
2019-03-23T02:54:44.440Z,37.50
2019-03-23T02:57:14.639Z,38.60
2019-03-23T02:59:44.828Z,38.10
2019-03-23T03:02:14.978Z,38.90
2019-03-23T03:04:45.071Z,41.73
2019-03-23T03:07:15.353Z,38.10
2019-03-23T03:09:45.589Z,40.40
2019-03-23T03:12:15.844Z,38.93
2019-03-23T03:14:46.023Z,38.20
2019-03-23T03:17:16.311Z,38.17
2019-03-23T03:19:46.510Z,41.10
2019-03-23T03:22:16.739Z,36.77
2019-03-23T03:24:47.094Z,39.53
2019-03-23T03:27:17.282Z,40.63
2019-03-23T03:29:47.536Z,40.83
2019-03-23T03:32:17.712Z,41.63
2019-03-23T03:34:47.930Z,42.00
2019-03-23T03:37:18.100Z,40.97
2019-03-23T03:39:48.403Z,41.90
2019-03-23T03:42:18.660Z,41.80
2019-03-23T03:44:49.032Z,40.47
2019-03-23T03:47:19.256Z,40.10
2019-03-23T03:49:49.465Z,42.33
2019-03-23T03:52:19.653Z,40.07
2019-03-23T03:54:49.986Z,40.27
2019-03-23T03:57:20.250Z,39.60
2019-03-23T03:59:50.354Z,40.43
2019-03-23T04:02:20.526Z,43.23
2019-03-23T04:04:50.692Z,41.13
2019-03-23T04:07:20.930Z,42.63
2019-03-23T04:09:51.173Z,41.73
2019-03-23T04:12:21.505Z,41.00
2019-03-23T04:14:51.680Z,41.27
2019-03-23T04:17:21.937Z,41.63
2019-03-23T04:19:52.153Z,42.23
2019-03-23T04:22:22.334Z,41.63
2019-03-23T04:24:52.541Z,42.57
2019-03-23T04:27:22.795Z,40.17
2019-03-23T04:29:52.989Z,40.13
2019-03-23T04:32:23.179Z,40.07
2019-03-23T04:34:53.482Z,41.77
2019-03-23T04:37:23.661Z,41.43
2019-03-23T04:39:53.877Z,41.13
2019-03-23T04:42:24.046Z,42.43
2019-03-23T04:44:54.225Z,41.67
2019-03-23T04:47:24.422Z,40.77
2019-03-23T04:49:54.573Z,38.87
2019-03-23T04:52:24.756Z,38.87
2019-03-23T04:54:54.876Z,40.90
2019-03-23T04:57:25.204Z,40.70
2019-03-23T04:59:55.336Z,39.70
2019-03-23T05:02:25.585Z,39.17
2019-03-23T05:04:55.722Z,36.47
2019-03-23T05:07:25.961Z,40.00
2019-03-23T05:09:56.186Z,39.40
2019-03-23T05:12:26.419Z,40.87
2019-03-23T05:14:56.747Z,37.93
2019-03-23T05:17:26.902Z,39.17
2019-03-23T05:19:57.018Z,41.03
2019-03-23T05:22:27.112Z,37.17
2019-03-23T05:24:57.311Z,38.13
2019-03-23T05:27:27.428Z,36.77
2019-03-23T05:29:57.543Z,36.77
2019-03-23T05:32:27.697Z,37.17
2019-03-23T05:34:57.916Z,37.30
2019-03-23T05:37:28.227Z,36.87
2019-03-23T05:39:58.470Z,37.20
2019-03-23T05:42:28.662Z,37.00
2019-03-23T05:44:58.769Z,34.77
2019-03-23T05:47:29.123Z,38.17
2019-03-23T05:49:59.397Z,36.67
2019-03-23T05:52:29.540Z,38.20
2019-03-23T05:54:59.672Z,39.30
2019-03-23T05:57:29.858Z,37.67
2019-03-23T06:00:00.018Z,36.80
2019-03-23T06:02:30.274Z,38.90
2019-03-23T06:05:00.487Z,37.13
2019-03-23T06:07:30.709Z,37.60
2019-03-23T06:10:00.958Z,37.77
2019-03-23T06:12:31.222Z,38.13
2019-03-23T06:15:01.359Z,39.73
2019-03-23T06:17:31.600Z,37.07
2019-03-23T06:20:01.767Z,39.97
2019-03-23T06:22:31.971Z,38.40
2019-03-23T06:25:02.140Z,41.37
2019-03-23T06:27:32.345Z,41.37
2019-03-23T06:30:02.623Z,41.50
2019-03-23T06:32:32.914Z,43.67
2019-03-23T06:35:03.150Z,40.93
2019-03-23T06:37:33.310Z,41.90
2019-03-23T06:40:03.426Z,46.17
2019-03-23T06:42:33.598Z,43.07
2019-03-23T06:45:03.795Z,43.70
2019-03-23T06:47:33.951Z,43.67
2019-03-23T06:50:04.527Z,44.57
2019-03-23T06:52:34.854Z,43.97
2019-03-23T06:55:05.471Z,43.37
2019-03-23T06:57:35.697Z,41.83
2019-03-23T07:00:07.130Z,40.93
2019-03-23T07:02:37.322Z,42.77
2019-03-23T07:05:08.653Z,42.27
2019-03-23T07:07:38.972Z,43.30
2019-03-23T07:10:10.120Z,41.43
2019-03-23T07:12:40.350Z,43.10
2019-03-23T07:15:19.382Z,42.50
2019-03-23T07:17:43.015Z,42.03
2019-03-23T07:20:14.342Z,41.80
2019-03-23T07:22:44.628Z,39.10
2019-03-23T07:25:15.066Z,39.13
2019-03-23T07:27:45.358Z,38.87
2019-03-23T07:30:16.279Z,39.77
2019-03-23T07:32:46.583Z,37.10
2019-03-23T07:35:16.894Z,36.50
2019-03-23T07:37:47.101Z,38.77
2019-03-23T07:40:17.287Z,37.37
2019-03-23T07:42:47.518Z,39.57
2019-03-23T07:45:17.847Z,38.10
2019-03-23T07:47:48.094Z,40.47
2019-03-23T07:50:18.343Z,37.90
2019-03-23T07:52:48.536Z,39.13
2019-03-23T07:55:18.833Z,38.23
2019-03-23T07:57:49.325Z,38.00
2019-03-23T08:00:20.139Z,36.67
2019-03-23T08:02:50.509Z,38.33
2019-03-23T08:05:20.673Z,37.87
2019-03-23T08:07:50.839Z,36.57
2019-03-23T08:10:31.845Z,36.50
2019-03-23T08:13:02.214Z,35.80
2019-03-23T08:15:32.625Z,36.77
2019-03-23T08:18:02.855Z,37.13
2019-03-23T08:20:33.064Z,35.27
2019-03-23T08:23:03.355Z,35.93
2019-03-23T08:25:33.564Z,36.13
2019-03-23T08:28:03.735Z,36.87
2019-03-23T08:30:34.033Z,35.77
2019-03-23T08:33:04.285Z,35.47
2019-03-23T08:35:34.585Z,34.87
2019-03-23T08:38:04.784Z,36.40
2019-03-23T08:40:35.950Z,37.57
2019-03-23T08:43:06.237Z,38.97
2019-03-23T08:45:36.433Z,36.57
2019-03-23T08:48:06.538Z,37.13
2019-03-23T08:50:36.638Z,38.30
2019-03-23T08:53:06.841Z,35.93
2019-03-23T08:55:37.078Z,36.57
2019-03-23T08:58:07.321Z,36.93
2019-03-23T09:00:37.587Z,34.87
2019-03-23T09:03:07.821Z,35.83
2019-03-23T09:05:38.086Z,35.10
2019-03-23T09:08:08.293Z,35.33
2019-03-23T09:10:38.435Z,35.27
2019-03-23T09:13:08.671Z,34.80
2019-03-23T09:15:38.879Z,35.80
2019-03-23T09:18:09.078Z,36.57
2019-03-23T09:20:39.168Z,35.50
2019-03-23T09:23:09.420Z,33.90
2019-03-23T09:25:39.683Z,34.37
2019-03-23T09:28:09.858Z,33.57
2019-03-23T09:30:40.057Z,34.80
2019-03-23T09:33:10.195Z,34.17
2019-03-23T09:35:40.391Z,33.73
2019-03-23T09:38:10.739Z,32.57
2019-03-23T09:40:40.925Z,33.97
2019-03-23T09:43:11.135Z,32.93
2019-03-23T09:45:41.266Z,32.07
2019-03-23T09:48:11.407Z,31.93
2019-03-23T09:50:42.494Z,33.23
2019-03-23T09:53:12.569Z,34.10
2019-03-23T09:55:42.732Z,33.67
2019-03-23T09:58:12.904Z,33.97
2019-03-23T10:00:43.020Z,33.27
2019-03-23T10:03:13.173Z,33.37
2019-03-23T10:05:43.427Z,34.97
2019-03-23T10:08:13.578Z,31.00
2019-03-23T10:10:43.770Z,32.67
2019-03-23T10:13:13.894Z,33.10
2019-03-23T10:15:44.063Z,32.43
2019-03-23T10:18:14.469Z,33.17
2019-03-23T10:20:44.649Z,32.27
2019-03-23T10:23:14.844Z,32.67
2019-03-23T10:25:45.072Z,32.77
2019-03-23T10:28:15.253Z,32.20
2019-03-23T10:30:45.508Z,32.43
2019-03-23T10:33:15.810Z,31.70
2019-03-23T10:35:46.249Z,32.93
2019-03-23T10:38:16.397Z,32.47
2019-03-23T10:40:46.555Z,32.73
2019-03-23T10:43:16.832Z,33.20
2019-03-23T10:45:47.025Z,33.63
2019-03-23T10:48:17.233Z,32.03
2019-03-23T10:50:47.519Z,31.87
2019-03-23T10:53:23.022Z,32.23
2019-03-23T10:55:49.621Z,32.07
2019-03-23T10:58:19.751Z,32.63
2019-03-23T11:00:49.922Z,33.40
2019-03-23T11:03:20.083Z,33.10
2019-03-23T11:05:50.303Z,32.23
2019-03-23T11:08:20.500Z,31.80
2019-03-23T11:10:50.657Z,32.53
2019-03-23T11:13:20.874Z,31.60
2019-03-23T11:15:51.176Z,32.77
2019-03-23T11:18:21.469Z,31.57
2019-03-23T11:20:51.655Z,32.50
2019-03-23T11:23:21.861Z,32.97
2019-03-23T11:25:53.676Z,32.43
2019-03-23T11:28:23.877Z,32.53
2019-03-23T11:30:54.053Z,32.47
2019-03-23T11:33:24.162Z,33.00
2019-03-23T11:35:57.937Z,32.43
2019-03-23T11:38:26.386Z,32.13
2019-03-23T11:40:56.534Z,34.10
2019-03-23T11:43:26.713Z,31.57
2019-03-23T11:45:56.823Z,34.23
2019-03-23T11:48:26.883Z,32.93
2019-03-23T11:50:57.135Z,31.87
2019-03-23T11:53:27.226Z,31.10
2019-03-23T11:55:57.404Z,31.87
2019-03-23T11:58:27.716Z,31.53
2019-03-23T12:00:57.867Z,30.73
2019-03-23T12:03:28.049Z,31.53
2019-03-23T12:05:58.313Z,32.30
2019-03-23T12:08:29.647Z,32.20
2019-03-23T12:11:03.058Z,30.63
2019-03-23T12:13:31.654Z,32.10
2019-03-23T12:16:02.103Z,32.10
2019-03-23T12:18:32.318Z,32.63
2019-03-23T12:21:02.463Z,32.03
2019-03-23T12:23:32.689Z,32.97
2019-03-23T12:26:03.015Z,31.47
2019-03-23T12:28:33.179Z,32.60
2019-03-23T12:31:03.425Z,33.20
2019-03-23T12:33:33.620Z,29.93
2019-03-23T12:36:03.762Z,32.03
2019-03-23T12:38:33.881Z,32.13
2019-03-23T12:41:14.183Z,31.47
2019-03-23T12:43:35.935Z,29.83
2019-03-23T12:46:06.220Z,29.63
2019-03-23T12:48:36.406Z,29.67
2019-03-23T12:51:06.606Z,29.70
2019-03-23T12:53:36.921Z,30.37
2019-03-23T12:56:07.081Z,30.20
2019-03-23T12:58:37.272Z,29.73
2019-03-23T13:01:07.546Z,29.23
2019-03-23T13:03:37.710Z,28.77
2019-03-23T13:06:07.988Z,29.60
2019-03-23T13:08:38.297Z,29.03
2019-03-23T13:11:08.500Z,28.23
2019-03-23T13:13:38.676Z,29.43
2019-03-23T13:16:08.809Z,29.23
2019-03-23T13:18:39.051Z,30.77
2019-03-23T13:21:09.225Z,29.97
2019-03-23T13:23:39.446Z,30.47
2019-03-23T13:26:09.693Z,30.73
2019-03-23T13:28:39.871Z,32.23
2019-03-23T13:31:10.149Z,29.17
2019-03-23T13:33:40.257Z,30.20
2019-03-23T13:36:10.558Z,30.83
2019-03-23T13:38:40.962Z,30.73
2019-03-23T13:41:11.135Z,32.93
2019-03-23T13:43:41.395Z,30.70
2019-03-23T13:46:11.558Z,30.00
2019-03-23T13:48:41.790Z,30.70
2019-03-23T13:51:11.896Z,30.60
2019-03-23T13:53:42.055Z,30.90
2019-03-23T13:56:12.202Z,30.57
2019-03-23T13:58:42.495Z,30.50
2019-03-23T14:01:12.630Z,30.33
2019-03-23T14:03:42.849Z,31.47
2019-03-23T14:06:16.150Z,31.63
2019-03-23T14:08:46.268Z,32.10
2019-03-23T14:11:16.427Z,32.57
2019-03-23T14:13:46.614Z,31.57
2019-03-23T14:16:16.817Z,31.00
2019-03-23T14:18:47.218Z,32.67
2019-03-23T14:21:23.580Z,31.47
2019-03-23T14:23:55.102Z,31.60
2019-03-23T14:26:24.981Z,32.20
2019-03-23T14:28:55.168Z,31.57
2019-03-23T14:31:25.358Z,32.47
2019-03-23T14:33:55.624Z,33.60
2019-03-23T14:36:25.751Z,32.97
2019-03-23T14:38:55.927Z,30.30
2019-03-23T14:41:26.038Z,33.00
2019-03-23T14:43:56.287Z,32.90
2019-03-23T14:46:26.508Z,31.20
2019-03-23T14:49:01.917Z,32.77
2019-03-23T14:51:28.527Z,31.70
2019-03-23T14:53:58.762Z,32.50
2019-03-23T14:56:31.622Z,31.13
2019-03-23T14:59:00.827Z,32.27
2019-03-23T15:01:31.141Z,31.37
2019-03-23T15:04:01.221Z,32.20
2019-03-23T15:06:31.376Z,32.17
2019-03-23T15:09:01.520Z,31.23
2019-03-23T15:11:31.743Z,31.07
2019-03-23T15:14:01.856Z,32.40
2019-03-23T15:16:32.190Z,31.90
2019-03-23T15:19:02.382Z,31.10
2019-03-23T15:21:35.153Z,33.43
2019-03-23T15:24:05.805Z,32.90
2019-03-23T15:26:35.971Z,32.63
2019-03-23T15:29:06.162Z,30.90
2019-03-23T15:31:38.483Z,29.97
2019-03-23T15:34:08.660Z,30.70
2019-03-23T15:36:38.825Z,29.23
2019-03-23T15:39:09.032Z,31.07
2019-03-23T15:41:39.247Z,30.20
2019-03-23T15:44:09.541Z,32.07
2019-03-23T15:46:39.687Z,31.37
2019-03-23T15:49:09.889Z,30.57
2019-03-23T15:51:40.063Z,30.63
2019-03-23T15:54:10.294Z,32.47
2019-03-23T15:56:40.537Z,33.13
2019-03-23T15:59:10.728Z,33.47
2019-03-23T16:01:40.993Z,32.10
2019-03-23T16:04:11.173Z,33.50
2019-03-23T16:06:41.406Z,32.17
2019-03-23T16:09:11.756Z,31.73
2019-03-23T16:11:42.061Z,30.63
2019-03-23T16:14:12.245Z,29.50
2019-03-23T16:16:42.526Z,29.70
2019-03-23T16:19:12.773Z,30.97
2019-03-23T16:21:43.010Z,33.00
2019-03-23T16:24:13.390Z,31.07
2019-03-23T16:26:43.883Z,31.80
2019-03-23T16:29:14.133Z,30.97
2019-03-23T16:31:44.251Z,26.67
2019-03-23T16:34:14.525Z,26.30
2019-03-23T16:36:44.811Z,23.90
2019-03-23T16:39:14.951Z,24.67
2019-03-23T16:41:45.243Z,22.67
2019-03-23T16:44:15.565Z,19.67
2019-03-23T16:46:45.738Z,19.03
2019-03-23T16:49:16.111Z,18.10
2019-03-23T16:51:46.383Z,16.30
2019-03-23T16:54:16.714Z,17.63
2019-03-23T16:56:46.960Z,16.93
2019-03-23T16:59:17.142Z,18.13
2019-03-23T17:01:47.375Z,16.43
2019-03-23T17:04:17.618Z,16.30
2019-03-23T17:06:47.953Z,15.07
2019-03-23T17:09:18.192Z,16.80
2019-03-23T17:11:48.415Z,15.53
2019-03-23T17:14:18.744Z,16.37
2019-03-23T17:16:48.913Z,16.83
2019-03-23T17:19:19.103Z,16.80
2019-03-23T17:21:49.382Z,16.60
2019-03-23T17:24:19.594Z,17.20
2019-03-23T17:26:49.802Z,17.03
2019-03-23T17:29:20.076Z,16.63
2019-03-23T17:31:51.184Z,16.50
2019-03-23T17:34:21.484Z,17.57
2019-03-23T17:36:51.791Z,16.80
2019-03-23T17:39:22.161Z,17.13
2019-03-23T17:41:52.481Z,17.37
2019-03-23T17:44:22.786Z,16.93
2019-03-23T17:46:53.010Z,15.80
2019-03-23T17:49:23.380Z,14.03
2019-03-23T17:51:55.489Z,14.50
2019-03-23T17:54:25.357Z,13.27
2019-03-23T17:56:55.619Z,12.83
2019-03-23T17:59:25.761Z,12.53
2019-03-23T18:01:55.970Z,10.70
2019-03-23T18:04:26.266Z,8.60
2019-03-23T18:06:56.657Z,9.43
2019-03-23T18:09:26.915Z,9.60
2019-03-23T18:11:57.169Z,9.40
2019-03-23T18:14:27.518Z,8.63
2019-03-23T18:16:59.792Z,8.53
2019-03-23T18:19:29.745Z,7.90
2019-03-23T18:22:00.098Z,9.03
2019-03-23T18:24:43.163Z,7.93
2019-03-23T18:27:13.614Z,8.83
2019-03-23T18:30:03.785Z,8.20
2019-03-23T18:32:33.961Z,8.87
2019-03-23T18:35:04.363Z,8.23
2019-03-23T18:37:34.649Z,7.67
2019-03-23T18:40:09.564Z,8.37
2019-03-23T18:46:13.316Z,8.07
2019-03-23T18:48:43.657Z,8.07
2019-03-23T18:51:13.901Z,8.33
2019-03-23T18:53:44.152Z,8.50
2019-03-23T18:56:14.519Z,8.33
2019-03-23T18:58:44.880Z,7.67
2019-03-23T19:01:15.084Z,7.77
2019-03-23T19:03:45.295Z,7.80
2019-03-23T19:06:15.588Z,8.30
2019-03-23T19:08:45.847Z,8.47
2019-03-23T19:11:15.988Z,8.30
2019-03-23T19:14:14.205Z,8.23
2019-03-23T19:16:44.320Z,7.40
2019-03-23T19:19:14.769Z,8.07
2019-03-23T19:21:46.946Z,7.57
2019-03-23T19:24:17.218Z,7.53
2019-03-23T19:26:47.657Z,7.93
2019-03-23T19:29:17.858Z,7.70
2019-03-23T19:31:48.225Z,7.63
2019-03-23T19:34:18.532Z,7.43
2019-03-23T19:36:48.881Z,6.63
2019-03-23T19:39:19.295Z,7.13
2019-03-23T19:41:49.681Z,7.03
2019-03-23T19:44:19.985Z,7.37
2019-03-23T19:46:52.255Z,6.50
2019-03-23T19:49:22.208Z,7.40
2019-03-23T19:51:52.451Z,7.03
2019-03-23T19:54:22.596Z,6.60
2019-03-23T19:56:52.861Z,7.77
2019-03-23T19:59:23.074Z,6.83
2019-03-23T20:01:53.392Z,6.83
2019-03-23T20:04:26.670Z,6.63
2019-03-23T20:06:56.913Z,7.20
2019-03-23T20:09:27.231Z,6.07
2019-03-23T20:11:57.700Z,6.87
2019-03-23T20:14:27.882Z,7.23
2019-03-23T20:16:58.062Z,7.03
2019-03-23T20:19:28.340Z,7.10
2019-03-23T20:21:58.699Z,6.80
2019-03-23T20:24:29.038Z,7.37
2019-03-23T20:26:59.313Z,6.93
2019-03-23T20:29:29.515Z,6.73
2019-03-23T20:32:00.213Z,7.33
2019-03-23T20:34:30.549Z,7.17
2019-03-23T20:37:03.877Z,8.27
2019-03-23T20:39:34.166Z,7.53
2019-03-23T20:42:04.493Z,8.20
2019-03-23T20:44:34.704Z,7.30
2019-03-23T20:47:05.080Z,7.43
2019-03-23T20:49:35.404Z,7.83
2019-03-23T20:52:05.717Z,8.57
2019-03-23T20:54:35.971Z,8.90
2019-03-23T20:57:06.214Z,9.80
2019-03-23T20:59:36.552Z,8.87
2019-03-23T21:02:06.851Z,8.17
2019-03-23T21:04:37.137Z,7.33
2019-03-23T21:07:07.483Z,9.33
2019-03-23T21:09:37.730Z,7.17
2019-03-23T21:12:08.031Z,7.27
2019-03-23T21:14:38.270Z,7.23
2019-03-23T21:17:08.513Z,6.67
2019-03-23T21:19:38.739Z,7.07
2019-03-23T21:22:09.039Z,7.10
2019-03-23T21:24:39.361Z,6.83
2019-03-23T21:27:09.488Z,6.57
2019-03-23T21:29:41.235Z,7.27
2019-03-23T21:32:11.533Z,6.73
2019-03-23T21:34:41.762Z,6.13
2019-03-23T21:37:11.952Z,6.60
2019-03-23T21:39:42.181Z,6.03
2019-03-23T21:42:12.383Z,5.93
2019-03-23T21:44:42.644Z,6.20
2019-03-23T21:47:14.018Z,5.90
2019-03-23T21:49:44.283Z,5.93
2019-03-23T21:52:14.590Z,5.97
2019-03-23T21:54:44.798Z,5.10
2019-03-23T21:57:15.058Z,5.10
2019-03-23T21:59:45.336Z,5.83
2019-03-23T22:02:15.494Z,6.13
2019-03-23T22:04:45.835Z,5.50
2019-03-23T22:07:16.038Z,5.23
2019-03-23T22:09:46.347Z,5.53
2019-03-23T22:12:16.624Z,5.03
2019-03-23T22:14:46.771Z,5.17
2019-03-23T22:17:16.979Z,5.17
2019-03-23T22:19:47.150Z,5.10
2019-03-23T22:22:17.318Z,5.37
2019-03-23T22:24:47.557Z,5.63
2019-03-23T22:27:19.160Z,5.10
2019-03-23T22:29:49.571Z,6.00
2019-03-23T22:32:19.700Z,5.50
2019-03-23T22:34:49.912Z,5.17
2019-03-23T22:37:20.114Z,4.80
2019-03-23T22:39:50.309Z,4.70
2019-03-23T22:42:20.488Z,5.77
2019-03-23T22:44:52.753Z,5.10
2019-03-23T22:47:22.601Z,4.50
2019-03-23T22:49:52.815Z,5.40
2019-03-23T22:52:23.032Z,5.70
2019-03-23T22:54:53.338Z,5.90
2019-03-23T22:57:23.523Z,4.90
2019-03-23T22:59:53.839Z,4.87
2019-03-23T23:02:23.942Z,5.57
2019-03-23T23:04:54.112Z,4.90
2019-03-23T23:07:24.324Z,5.40
2019-03-23T23:09:54.443Z,5.27
2019-03-23T23:12:24.677Z,5.03
2019-03-23T23:15:04.048Z,5.37
2019-03-23T23:17:26.659Z,5.07
2019-03-23T23:19:56.747Z,4.67
2019-03-23T23:22:26.988Z,5.67
2019-03-23T23:24:57.168Z,5.17
2019-03-23T23:27:27.371Z,5.50
2019-03-23T23:29:57.480Z,5.77
2019-03-23T23:32:27.636Z,5.63
2019-03-23T23:34:57.826Z,5.03
2019-03-23T23:37:28.099Z,5.70
2019-03-23T23:39:58.296Z,5.57
2019-03-23T23:42:28.474Z,5.60
2019-03-23T23:44:58.665Z,6.07
2019-03-23T23:47:28.872Z,6.03
2019-03-23T23:49:59.023Z,5.37
2019-03-23T23:52:29.203Z,5.60
2019-03-23T23:55:00.389Z,5.50
2019-03-23T23:57:30.499Z,6.17
